sensor_id;sensor_type;location;lat;lon;timestamp;P1;durP1;ratioP1;P2;durP2;ratioP2
66020;SDS011;52789;59.980;30.346;2022-07-19T00:01:23;7.17;;;5.10;;
66020;SDS011;52789;59.980;30.346;2022-07-19T00:03:48;11.60;;;4.77;;
66020;SDS011;52789;59.980;30.346;2022-07-19T00:06:14;5.50;;;4.40;;
66020;SDS011;52789;59.980;30.346;2022-07-19T00:08:39;6.70;;;4.30;;
66020;SDS011;52789;59.980;30.346;2022-07-19T00:11:05;6.43;;;4.20;;
66020;SDS011;52789;59.980;30.346;2022-07-19T00:13:30;5.90;;;4.50;;
66020;SDS011;52789;59.980;30.346;2022-07-19T00:15:56;4.53;;;3.70;;
66020;SDS011;52789;59.980;30.346;2022-07-19T00:18:21;5.87;;;3.53;;
66020;SDS011;52789;59.980;30.346;2022-07-19T00:20:47;3.97;;;3.30;;
66020;SDS011;52789;59.980;30.346;2022-07-19T00:23:12;4.30;;;3.70;;
66020;SDS011;52789;59.980;30.346;2022-07-19T00:25:38;3.57;;;2.97;;
66020;SDS011;52789;59.980;30.346;2022-07-19T00:28:03;5.83;;;3.60;;
66020;SDS011;52789;59.980;30.346;2022-07-19T00:30:31;3.40;;;3.00;;
66020;SDS011;52789;59.980;30.346;2022-07-19T00:32:56;3.50;;;3.20;;
66020;SDS011;52789;59.980;30.346;2022-07-19T00:35:22;3.43;;;3.13;;
66020;SDS011;52789;59.980;30.346;2022-07-19T00:37:48;5.07;;;3.33;;
66020;SDS011;52789;59.980;30.346;2022-07-19T00:40:14;3.80;;;3.03;;
66020;SDS011;52789;59.980;30.346;2022-07-19T00:42:50;4.10;;;2.90;;
66020;SDS011;52789;59.980;30.346;2022-07-19T00:45:17;6.73;;;4.20;;
66020;SDS011;52789;59.980;30.346;2022-07-19T00:47:42;6.53;;;3.07;;
66020;SDS011;52789;59.980;30.346;2022-07-19T00:50:08;3.60;;;3.07;;
66020;SDS011;52789;59.980;30.346;2022-07-19T00:52:33;2.70;;;2.50;;
66020;SDS011;52789;59.980;30.346;2022-07-19T00:55:00;3.80;;;2.70;;
66020;SDS011;52789;59.980;30.346;2022-07-19T00:57:25;5.00;;;2.67;;
66020;SDS011;52789;59.980;30.346;2022-07-19T00:59:54;2.73;;;2.53;;
66020;SDS011;52789;59.980;30.346;2022-07-19T01:02:19;3.45;;;2.53;;
66020;SDS011;52789;59.980;30.346;2022-07-19T01:04:45;5.77;;;2.67;;
66020;SDS011;52789;59.980;30.346;2022-07-19T01:07:12;3.30;;;2.60;;
66020;SDS011;52789;59.980;30.346;2022-07-19T01:09:37;3.20;;;2.60;;
66020;SDS011;52789;59.980;30.346;2022-07-19T01:12:03;2.83;;;2.37;;
66020;SDS011;52789;59.980;30.346;2022-07-19T01:14:30;3.00;;;2.70;;
66020;SDS011;52789;59.980;30.346;2022-07-19T01:16:56;3.03;;;2.73;;
66020;SDS011;52789;59.980;30.346;2022-07-19T01:19:24;3.80;;;2.53;;
66020;SDS011;52789;59.980;30.346;2022-07-19T01:21:52;2.20;;;2.07;;
66020;SDS011;52789;59.980;30.346;2022-07-19T01:26:43;3.27;;;2.37;;
66020;SDS011;52789;59.980;30.346;2022-07-19T01:29:17;3.23;;;2.43;;
66020;SDS011;52789;59.980;30.346;2022-07-19T01:31:43;2.80;;;2.60;;
66020;SDS011;52789;59.980;30.346;2022-07-19T01:34:08;3.30;;;2.83;;
66020;SDS011;52789;59.980;30.346;2022-07-19T01:36:34;3.83;;;2.53;;
66020;SDS011;52789;59.980;30.346;2022-07-19T01:39:00;4.00;;;2.60;;
66020;SDS011;52789;59.980;30.346;2022-07-19T01:41:26;3.53;;;2.97;;
66020;SDS011;52789;59.980;30.346;2022-07-19T01:43:51;3.17;;;2.60;;
66020;SDS011;52789;59.980;30.346;2022-07-19T01:46:17;3.67;;;2.27;;
66020;SDS011;52789;59.980;30.346;2022-07-19T01:48:42;4.03;;;3.17;;
66020;SDS011;52789;59.980;30.346;2022-07-19T01:51:08;3.37;;;3.07;;
66020;SDS011;52789;59.980;30.346;2022-07-19T01:53:33;2.63;;;2.43;;
66020;SDS011;52789;59.980;30.346;2022-07-19T01:55:59;3.50;;;2.43;;
66020;SDS011;52789;59.980;30.346;2022-07-19T01:58:24;2.80;;;2.50;;
66020;SDS011;52789;59.980;30.346;2022-07-19T02:00:50;2.97;;;2.67;;
66020;SDS011;52789;59.980;30.346;2022-07-19T02:03:16;4.57;;;2.33;;
66020;SDS011;52789;59.980;30.346;2022-07-19T02:05:43;2.40;;;2.20;;
66020;SDS011;52789;59.980;30.346;2022-07-19T02:08:09;4.40;;;2.83;;
66020;SDS011;52789;59.980;30.346;2022-07-19T02:10:34;2.50;;;2.30;;
66020;SDS011;52789;59.980;30.346;2022-07-19T02:13:00;3.43;;;2.93;;
66020;SDS011;52789;59.980;30.346;2022-07-19T02:15:25;7.60;;;3.30;;
66020;SDS011;52789;59.980;30.346;2022-07-19T02:17:51;3.23;;;2.93;;
66020;SDS011;52789;59.980;30.346;2022-07-19T02:20:17;3.27;;;2.80;;
66020;SDS011;52789;59.980;30.346;2022-07-19T02:22:43;3.07;;;2.77;;
66020;SDS011;52789;59.980;30.346;2022-07-19T02:25:08;4.23;;;3.10;;
66020;SDS011;52789;59.980;30.346;2022-07-19T02:27:34;4.97;;;2.77;;
66020;SDS011;52789;59.980;30.346;2022-07-19T02:29:59;4.17;;;3.10;;
66020;SDS011;52789;59.980;30.346;2022-07-19T02:32:25;2.93;;;2.73;;
66020;SDS011;52789;59.980;30.346;2022-07-19T02:34:50;5.57;;;3.00;;
66020;SDS011;52789;59.980;30.346;2022-07-19T02:37:16;3.97;;;3.13;;
66020;SDS011;52789;59.980;30.346;2022-07-19T02:39:42;4.77;;;2.90;;
66020;SDS011;52789;59.980;30.346;2022-07-19T02:42:07;4.83;;;2.77;;
66020;SDS011;52789;59.980;30.346;2022-07-19T02:44:32;4.30;;;3.10;;
66020;SDS011;52789;59.980;30.346;2022-07-19T02:46:58;3.67;;;2.63;;
66020;SDS011;52789;59.980;30.346;2022-07-19T02:49:24;3.00;;;2.80;;
66020;SDS011;52789;59.980;30.346;2022-07-19T02:51:49;4.77;;;2.80;;
66020;SDS011;52789;59.980;30.346;2022-07-19T02:54:15;3.30;;;3.00;;
66020;SDS011;52789;59.980;30.346;2022-07-19T02:56:40;5.23;;;2.97;;
66020;SDS011;52789;59.980;30.346;2022-07-19T02:59:06;8.37;;;2.77;;
66020;SDS011;52789;59.980;30.346;2022-07-19T03:01:31;3.87;;;2.57;;
66020;SDS011;52789;59.980;30.346;2022-07-19T03:03:57;5.20;;;2.70;;
66020;SDS011;52789;59.980;30.346;2022-07-19T03:06:23;3.20;;;2.10;;
66020;SDS011;52789;59.980;30.346;2022-07-19T03:08:49;3.40;;;2.20;;
66020;SDS011;52789;59.980;30.346;2022-07-19T03:11:14;4.50;;;2.10;;
66020;SDS011;52789;59.980;30.346;2022-07-19T03:13:40;4.13;;;2.07;;
66020;SDS011;52789;59.980;30.346;2022-07-19T03:16:06;4.87;;;2.43;;
66020;SDS011;52789;59.980;30.346;2022-07-19T03:18:32;6.20;;;2.33;;
66020;SDS011;52789;59.980;30.346;2022-07-19T03:20:57;1.80;;;1.70;;
66020;SDS011;52789;59.980;30.346;2022-07-19T03:23:25;2.97;;;2.27;;
66020;SDS011;52789;59.980;30.346;2022-07-19T03:25:56;3.43;;;1.70;;
66020;SDS011;52789;59.980;30.346;2022-07-19T03:28:22;3.20;;;2.23;;
66020;SDS011;52789;59.980;30.346;2022-07-19T03:30:48;1.77;;;1.60;;
66020;SDS011;52789;59.980;30.346;2022-07-19T03:33:15;2.27;;;1.80;;
66020;SDS011;52789;59.980;30.346;2022-07-19T03:35:43;1.87;;;1.77;;
66020;SDS011;52789;59.980;30.346;2022-07-19T03:38:11;3.63;;;1.80;;
66020;SDS011;52789;59.980;30.346;2022-07-19T03:40:37;2.40;;;1.50;;
66020;SDS011;52789;59.980;30.346;2022-07-19T03:43:04;6.47;;;1.90;;
66020;SDS011;52789;59.980;30.346;2022-07-19T03:45:30;2.90;;;1.77;;
66020;SDS011;52789;59.980;30.346;2022-07-19T03:47:55;1.63;;;1.50;;
66020;SDS011;52789;59.980;30.346;2022-07-19T03:50:21;4.33;;;1.53;;
66020;SDS011;52789;59.980;30.346;2022-07-19T03:52:46;2.03;;;1.67;;
66020;SDS011;52789;59.980;30.346;2022-07-19T03:55:12;5.30;;;2.23;;
66020;SDS011;52789;59.980;30.346;2022-07-19T03:57:38;1.70;;;1.60;;
66020;SDS011;52789;59.980;30.346;2022-07-19T04:00:03;1.60;;;1.30;;
66020;SDS011;52789;59.980;30.346;2022-07-19T04:02:30;2.40;;;1.53;;
66020;SDS011;52789;59.980;30.346;2022-07-19T04:04:56;1.93;;;1.53;;
66020;SDS011;52789;59.980;30.346;2022-07-19T04:07:21;2.33;;;1.10;;
66020;SDS011;52789;59.980;30.346;2022-07-19T04:09:46;4.00;;;1.20;;
66020;SDS011;52789;59.980;30.346;2022-07-19T04:12:12;5.63;;;1.90;;
66020;SDS011;52789;59.980;30.346;2022-07-19T04:14:37;1.90;;;1.40;;
66020;SDS011;52789;59.980;30.346;2022-07-19T04:17:03;1.50;;;1.30;;
66020;SDS011;52789;59.980;30.346;2022-07-19T04:19:30;1.50;;;1.40;;
66020;SDS011;52789;59.980;30.346;2022-07-19T04:21:56;2.60;;;1.23;;
66020;SDS011;52789;59.980;30.346;2022-07-19T04:24:21;1.67;;;1.30;;
66020;SDS011;52789;59.980;30.346;2022-07-19T04:26:46;1.27;;;1.17;;
66020;SDS011;52789;59.980;30.346;2022-07-19T04:29:14;1.90;;;1.07;;
66020;SDS011;52789;59.980;30.346;2022-07-19T04:31:40;1.67;;;1.25;;
66020;SDS011;52789;59.980;30.346;2022-07-19T04:34:05;1.33;;;1.23;;
66020;SDS011;52789;59.980;30.346;2022-07-19T04:36:31;2.23;;;1.37;;
66020;SDS011;52789;59.980;30.346;2022-07-19T04:38:57;1.50;;;1.20;;
66020;SDS011;52789;59.980;30.346;2022-07-19T04:41:22;1.17;;;1.07;;
66020;SDS011;52789;59.980;30.346;2022-07-19T04:43:48;4.33;;;1.40;;
66020;SDS011;52789;59.980;30.346;2022-07-19T04:46:13;1.50;;;1.40;;
66020;SDS011;52789;59.980;30.346;2022-07-19T04:48:39;2.70;;;1.47;;
66020;SDS011;52789;59.980;30.346;2022-07-19T04:51:06;4.83;;;1.30;;
66020;SDS011;52789;59.980;30.346;2022-07-19T04:53:32;2.38;;;1.92;;
66020;SDS011;52789;59.980;30.346;2022-07-19T04:55:57;1.75;;;1.65;;
66020;SDS011;52789;59.980;30.346;2022-07-19T04:58:23;2.17;;;1.60;;
66020;SDS011;52789;59.980;30.346;2022-07-19T05:00:48;1.50;;;1.05;;
66020;SDS011;52789;59.980;30.346;2022-07-19T05:03:13;1.50;;;1.10;;
66020;SDS011;52789;59.980;30.346;2022-07-19T05:05:39;1.10;;;0.75;;
66020;SDS011;52789;59.980;30.346;2022-07-19T05:08:04;1.88;;;0.98;;
66020;SDS011;52789;59.980;30.346;2022-07-19T05:10:30;3.25;;;1.48;;
66020;SDS011;52789;59.980;30.346;2022-07-19T05:12:56;2.20;;;1.10;;
66020;SDS011;52789;59.980;30.346;2022-07-19T05:15:21;7.35;;;1.42;;
66020;SDS011;52789;59.980;30.346;2022-07-19T05:17:46;2.67;;;1.33;;
66020;SDS011;52789;59.980;30.346;2022-07-19T05:20:12;1.55;;;1.30;;
66020;SDS011;52789;59.980;30.346;2022-07-19T05:22:40;2.13;;;0.90;;
66020;SDS011;52789;59.980;30.346;2022-07-19T05:25:06;2.20;;;1.50;;
66020;SDS011;52789;59.980;30.346;2022-07-19T05:27:33;4.45;;;1.25;;
66020;SDS011;52789;59.980;30.346;2022-07-19T05:29:58;5.15;;;1.77;;
66020;SDS011;52789;59.980;30.346;2022-07-19T05:32:24;3.72;;;1.23;;
66020;SDS011;52789;59.980;30.346;2022-07-19T05:34:49;3.28;;;1.05;;
66020;SDS011;52789;59.980;30.346;2022-07-19T05:37:15;1.42;;;1.25;;
66020;SDS011;52789;59.980;30.346;2022-07-19T05:39:40;1.40;;;1.00;;
66020;SDS011;52789;59.980;30.346;2022-07-19T05:42:06;0.82;;;0.80;;
66020;SDS011;52789;59.980;30.346;2022-07-19T05:44:31;2.88;;;1.02;;
66020;SDS011;52789;59.980;30.346;2022-07-19T05:46:57;4.38;;;1.73;;
66020;SDS011;52789;59.980;30.346;2022-07-19T05:49:22;2.75;;;0.80;;
66020;SDS011;52789;59.980;30.346;2022-07-19T05:51:48;1.80;;;1.00;;
66020;SDS011;52789;59.980;30.346;2022-07-19T05:54:13;2.67;;;1.30;;
66020;SDS011;52789;59.980;30.346;2022-07-19T05:56:39;1.38;;;1.20;;
66020;SDS011;52789;59.980;30.346;2022-07-19T05:59:04;2.22;;;0.90;;
66020;SDS011;52789;59.980;30.346;2022-07-19T06:03:59;3.22;;;0.75;;
66020;SDS011;52789;59.980;30.346;2022-07-19T06:06:26;3.72;;;1.48;;
66020;SDS011;52789;59.980;30.346;2022-07-19T06:08:53;1.40;;;1.30;;
66020;SDS011;52789;59.980;30.346;2022-07-19T06:11:19;2.53;;;1.30;;
66020;SDS011;52789;59.980;30.346;2022-07-19T06:13:45;0.98;;;0.77;;
66020;SDS011;52789;59.980;30.346;2022-07-19T06:16:12;2.20;;;1.40;;
66020;SDS011;52789;59.980;30.346;2022-07-19T06:18:38;2.05;;;1.17;;
66020;SDS011;52789;59.980;30.346;2022-07-19T06:21:08;2.47;;;1.17;;
66020;SDS011;52789;59.980;30.346;2022-07-19T06:23:40;2.88;;;1.88;;
66020;SDS011;52789;59.980;30.346;2022-07-19T06:26:07;3.67;;;1.50;;
66020;SDS011;52789;59.980;30.346;2022-07-19T06:28:33;3.50;;;2.17;;
66020;SDS011;52789;59.980;30.346;2022-07-19T06:31:00;3.33;;;1.35;;
66020;SDS011;52789;59.980;30.346;2022-07-19T06:33:27;1.65;;;1.20;;
66020;SDS011;52789;59.980;30.346;2022-07-19T06:35:53;3.35;;;1.27;;
66020;SDS011;52789;59.980;30.346;2022-07-19T06:38:18;3.85;;;1.55;;
66020;SDS011;52789;59.980;30.346;2022-07-19T06:40:44;2.58;;;1.20;;
66020;SDS011;52789;59.980;30.346;2022-07-19T06:43:10;1.85;;;1.23;;
66020;SDS011;52789;59.980;30.346;2022-07-19T06:45:36;4.60;;;1.08;;
66020;SDS011;52789;59.980;30.346;2022-07-19T06:48:02;4.97;;;1.45;;
66020;SDS011;52789;59.980;30.346;2022-07-19T06:50:28;2.55;;;1.73;;
66020;SDS011;52789;59.980;30.346;2022-07-19T06:52:53;1.65;;;1.25;;
66020;SDS011;52789;59.980;30.346;2022-07-19T06:55:19;1.63;;;1.23;;
66020;SDS011;52789;59.980;30.346;2022-07-19T06:57:45;5.10;;;2.28;;
66020;SDS011;52789;59.980;30.346;2022-07-19T07:00:10;2.45;;;2.00;;
66020;SDS011;52789;59.980;30.346;2022-07-19T07:02:36;5.22;;;1.33;;
66020;SDS011;52789;59.980;30.346;2022-07-19T07:05:04;3.85;;;1.50;;
66020;SDS011;52789;59.980;30.346;2022-07-19T07:07:30;4.27;;;1.63;;
66020;SDS011;52789;59.980;30.346;2022-07-19T07:09:56;2.92;;;1.20;;
66020;SDS011;52789;59.980;30.346;2022-07-19T07:12:21;1.75;;;1.55;;
66020;SDS011;52789;59.980;30.346;2022-07-19T07:14:47;1.85;;;1.70;;
66020;SDS011;52789;59.980;30.346;2022-07-19T07:17:12;1.83;;;1.25;;
66020;SDS011;52789;59.980;30.346;2022-07-19T07:19:38;8.57;;;1.42;;
66020;SDS011;52789;59.980;30.346;2022-07-19T07:22:03;2.22;;;0.95;;
66020;SDS011;52789;59.980;30.346;2022-07-19T07:24:29;1.75;;;1.30;;
66020;SDS011;52789;59.980;30.346;2022-07-19T07:26:55;2.55;;;1.38;;
66020;SDS011;52789;59.980;30.346;2022-07-19T07:29:21;2.20;;;1.67;;
66020;SDS011;52789;59.980;30.346;2022-07-19T07:31:46;3.08;;;1.30;;
66020;SDS011;52789;59.980;30.346;2022-07-19T07:34:13;2.17;;;1.30;;
66020;SDS011;52789;59.980;30.346;2022-07-19T07:36:39;5.68;;;1.85;;
66020;SDS011;52789;59.980;30.346;2022-07-19T07:39:05;7.47;;;1.55;;
66020;SDS011;52789;59.980;30.346;2022-07-19T07:41:30;4.78;;;1.50;;
66020;SDS011;52789;59.980;30.346;2022-07-19T07:44:05;5.60;;;1.30;;
66020;SDS011;52789;59.980;30.346;2022-07-19T07:47:18;9.45;;;1.80;;
66020;SDS011;52789;59.980;30.346;2022-07-19T07:49:43;2.17;;;1.45;;
66020;SDS011;52789;59.980;30.346;2022-07-19T07:52:09;1.67;;;1.40;;
66020;SDS011;52789;59.980;30.346;2022-07-19T07:54:40;4.25;;;1.58;;
66020;SDS011;52789;59.980;30.346;2022-07-19T07:57:06;2.65;;;1.20;;
66020;SDS011;52789;59.980;30.346;2022-07-19T07:59:33;2.30;;;1.25;;
66020;SDS011;52789;59.980;30.346;2022-07-19T08:01:59;2.40;;;1.27;;
66020;SDS011;52789;59.980;30.346;2022-07-19T08:04:25;1.80;;;1.20;;
66020;SDS011;52789;59.980;30.346;2022-07-19T08:06:51;4.22;;;1.30;;
66020;SDS011;52789;59.980;30.346;2022-07-19T08:09:17;2.97;;;1.63;;
66020;SDS011;52789;59.980;30.346;2022-07-19T08:11:42;5.95;;;1.33;;
66020;SDS011;52789;59.980;30.346;2022-07-19T08:14:08;2.58;;;1.63;;
66020;SDS011;52789;59.980;30.346;2022-07-19T08:16:33;4.85;;;1.50;;
66020;SDS011;52789;59.980;30.346;2022-07-19T08:18:59;4.93;;;2.28;;
66020;SDS011;52789;59.980;30.346;2022-07-19T08:21:24;3.33;;;1.38;;
66020;SDS011;52789;59.980;30.346;2022-07-19T08:23:50;5.47;;;1.38;;
66020;SDS011;52789;59.980;30.346;2022-07-19T08:26:17;5.47;;;1.50;;
66020;SDS011;52789;59.980;30.346;2022-07-19T08:28:43;2.88;;;1.52;;
66020;SDS011;52789;59.980;30.346;2022-07-19T08:31:11;3.72;;;1.52;;
66020;SDS011;52789;59.980;30.346;2022-07-19T08:33:38;4.78;;;1.30;;
66020;SDS011;52789;59.980;30.346;2022-07-19T08:36:05;3.97;;;1.03;;
66020;SDS011;52789;59.980;30.346;2022-07-19T08:38:34;3.78;;;0.80;;
66020;SDS011;52789;59.980;30.346;2022-07-19T08:41:01;3.33;;;1.27;;
66020;SDS011;52789;59.980;30.346;2022-07-19T08:43:27;2.25;;;1.20;;
66020;SDS011;52789;59.980;30.346;2022-07-19T08:45:53;1.67;;;1.13;;
66020;SDS011;52789;59.980;30.346;2022-07-19T08:48:22;2.88;;;1.00;;
66020;SDS011;52789;59.980;30.346;2022-07-19T08:50:48;2.33;;;1.13;;
66020;SDS011;52789;59.980;30.346;2022-07-19T08:53:15;3.42;;;1.30;;
66020;SDS011;52789;59.980;30.346;2022-07-19T08:55:41;1.50;;;0.80;;
66020;SDS011;52789;59.980;30.346;2022-07-19T08:58:07;3.88;;;1.15;;
66020;SDS011;52789;59.980;30.346;2022-07-19T09:00:33;2.85;;;1.65;;
66020;SDS011;52789;59.980;30.346;2022-07-19T09:03:02;3.25;;;1.30;;
66020;SDS011;52789;59.980;30.346;2022-07-19T09:05:30;2.63;;;1.98;;
66020;SDS011;52789;59.980;30.346;2022-07-19T09:08:06;2.28;;;1.02;;
66020;SDS011;52789;59.980;30.346;2022-07-19T09:10:37;6.30;;;0.93;;
66020;SDS011;52789;59.980;30.346;2022-07-19T09:15:45;1.23;;;0.80;;
66020;SDS011;52789;59.980;30.346;2022-07-19T09:18:17;3.30;;;0.70;;
66020;SDS011;52789;59.980;30.346;2022-07-19T09:20:55;3.75;;;1.02;;
66020;SDS011;52789;59.980;30.346;2022-07-19T09:33:10;8.75;;;1.88;;
66020;SDS011;52789;59.980;30.346;2022-07-19T09:35:39;6.95;;;2.50;;
66020;SDS011;52789;59.980;30.346;2022-07-19T09:38:30;6.45;;;2.30;;
66020;SDS011;52789;59.980;30.346;2022-07-19T09:43:48;2.75;;;1.08;;
66020;SDS011;52789;59.980;30.346;2022-07-19T09:49:05;4.13;;;1.65;;
66020;SDS011;52789;59.980;30.346;2022-07-19T09:51:35;4.80;;;2.20;;
66020;SDS011;52789;59.980;30.346;2022-07-19T09:54:03;2.30;;;1.30;;
66020;SDS011;52789;59.980;30.346;2022-07-19T09:56:47;6.57;;;1.48;;
66020;SDS011;52789;59.980;30.346;2022-07-19T09:59:15;7.43;;;2.55;;
66020;SDS011;52789;59.980;30.346;2022-07-19T10:01:42;10.60;;;2.30;;
66020;SDS011;52789;59.980;30.346;2022-07-19T10:04:14;2.88;;;0.95;;
66020;SDS011;52789;59.980;30.346;2022-07-19T10:06:41;13.35;;;1.20;;
66020;SDS011;52789;59.980;30.346;2022-07-19T10:09:08;5.38;;;1.25;;
66020;SDS011;52789;59.980;30.346;2022-07-19T10:11:36;2.28;;;0.95;;
66020;SDS011;52789;59.980;30.346;2022-07-19T10:14:03;2.03;;;1.42;;
66020;SDS011;52789;59.980;30.346;2022-07-19T10:19:16;3.72;;;1.63;;
66020;SDS011;52789;59.980;30.346;2022-07-19T10:22:02;5.80;;;0.93;;
66020;SDS011;52789;59.980;30.346;2022-07-19T10:24:48;2.75;;;1.20;;
66020;SDS011;52789;59.980;30.346;2022-07-19T10:32:49;1.88;;;1.17;;
66020;SDS011;52789;59.980;30.346;2022-07-19T10:37:52;2.33;;;1.63;;
66020;SDS011;52789;59.980;30.346;2022-07-19T10:43:04;4.75;;;2.45;;
66020;SDS011;52789;59.980;30.346;2022-07-19T10:45:31;4.05;;;1.45;;
66020;SDS011;52789;59.980;30.346;2022-07-19T10:47:57;11.75;;;5.72;;
66020;SDS011;52789;59.980;30.346;2022-07-19T10:50:25;6.53;;;4.00;;
66020;SDS011;52789;59.980;30.346;2022-07-19T10:53:07;2.88;;;1.40;;
66020;SDS011;52789;59.980;30.346;2022-07-19T10:55:32;5.18;;;1.27;;
66020;SDS011;52789;59.980;30.346;2022-07-19T10:58:08;6.78;;;2.72;;
66020;SDS011;52789;59.980;30.346;2022-07-19T11:00:42;8.68;;;1.55;;
66020;SDS011;52789;59.980;30.346;2022-07-19T11:05:47;9.50;;;1.50;;
66020;SDS011;52789;59.980;30.346;2022-07-19T11:08:30;7.95;;;1.70;;
66020;SDS011;52789;59.980;30.346;2022-07-19T11:11:07;10.52;;;2.47;;
66020;SDS011;52789;59.980;30.346;2022-07-19T11:13:35;1.95;;;1.23;;
66020;SDS011;52789;59.980;30.346;2022-07-19T11:16:01;1.40;;;0.90;;
66020;SDS011;52789;59.980;30.346;2022-07-19T11:18:31;2.60;;;1.17;;
66020;SDS011;52789;59.980;30.346;2022-07-19T11:21:04;6.90;;;0.95;;
66020;SDS011;52789;59.980;30.346;2022-07-19T11:23:32;8.23;;;3.05;;
66020;SDS011;52789;59.980;30.346;2022-07-19T11:26:11;5.63;;;1.60;;
66020;SDS011;52789;59.980;30.346;2022-07-19T11:28:44;1.75;;;0.90;;
66020;SDS011;52789;59.980;30.346;2022-07-19T11:31:15;2.72;;;1.45;;
66020;SDS011;52789;59.980;30.346;2022-07-19T11:33:43;2.55;;;0.80;;
66020;SDS011;52789;59.980;30.346;2022-07-19T11:41:56;6.32;;;2.17;;
66020;SDS011;52789;59.980;30.346;2022-07-19T11:44:21;3.17;;;1.30;;
66020;SDS011;52789;59.980;30.346;2022-07-19T11:46:47;11.32;;;2.17;;
66020;SDS011;52789;59.980;30.346;2022-07-19T11:49:12;6.05;;;1.40;;
66020;SDS011;52789;59.980;30.346;2022-07-19T11:51:40;5.70;;;1.20;;
66020;SDS011;52789;59.980;30.346;2022-07-19T11:54:06;2.15;;;1.30;;
66020;SDS011;52789;59.980;30.346;2022-07-19T11:56:33;3.42;;;1.05;;
66020;SDS011;52789;59.980;30.346;2022-07-19T11:59:00;9.70;;;2.70;;
66020;SDS011;52789;59.980;30.346;2022-07-19T12:01:37;2.63;;;1.00;;
66020;SDS011;52789;59.980;30.346;2022-07-19T12:04:05;1.20;;;0.90;;
66020;SDS011;52789;59.980;30.346;2022-07-19T12:06:40;4.15;;;1.00;;
66020;SDS011;52789;59.980;30.346;2022-07-19T12:09:11;3.70;;;0.80;;
66020;SDS011;52789;59.980;30.346;2022-07-19T12:11:52;2.85;;;1.20;;
66020;SDS011;52789;59.980;30.346;2022-07-19T12:19:43;7.40;;;1.30;;
66020;SDS011;52789;59.980;30.346;2022-07-19T12:22:29;2.45;;;0.80;;
66020;SDS011;52789;59.980;30.346;2022-07-19T12:24:58;2.75;;;0.70;;
66020;SDS011;52789;59.980;30.346;2022-07-19T12:27:24;2.90;;;1.10;;
66020;SDS011;52789;59.980;30.346;2022-07-19T12:29:56;0.98;;;0.70;;
66020;SDS011;52789;59.980;30.346;2022-07-19T12:32:35;0.98;;;0.60;;
66020;SDS011;52789;59.980;30.346;2022-07-19T12:40:09;3.65;;;1.55;;
66020;SDS011;52789;59.980;30.346;2022-07-19T12:45:15;3.95;;;1.23;;
66020;SDS011;52789;59.980;30.346;2022-07-19T12:47:48;4.55;;;1.27;;
66020;SDS011;52789;59.980;30.346;2022-07-19T12:50:22;8.18;;;2.65;;
66020;SDS011;52789;59.980;30.346;2022-07-19T12:52:59;11.68;;;1.70;;
66020;SDS011;52789;59.980;30.346;2022-07-19T12:55:26;6.30;;;1.63;;
66020;SDS011;52789;59.980;30.346;2022-07-19T12:57:53;7.60;;;1.40;;
66020;SDS011;52789;59.980;30.346;2022-07-19T13:00:21;5.72;;;2.20;;
66020;SDS011;52789;59.980;30.346;2022-07-19T13:02:48;3.13;;;0.80;;
66020;SDS011;52789;59.980;30.346;2022-07-19T13:05:15;8.73;;;2.08;;
66020;SDS011;52789;59.980;30.346;2022-07-19T13:07:41;1.65;;;0.65;;
66020;SDS011;52789;59.980;30.346;2022-07-19T13:10:07;3.00;;;0.63;;
66020;SDS011;52789;59.980;30.346;2022-07-19T13:12:36;3.55;;;0.80;;
66020;SDS011;52789;59.980;30.346;2022-07-19T13:15:05;2.55;;;0.95;;
66020;SDS011;52789;59.980;30.346;2022-07-19T13:17:31;4.03;;;0.80;;
66020;SDS011;52789;59.980;30.346;2022-07-19T13:19:57;1.55;;;0.70;;
66020;SDS011;52789;59.980;30.346;2022-07-19T13:22:23;0.93;;;0.60;;
66020;SDS011;52789;59.980;30.346;2022-07-19T13:24:49;4.05;;;1.15;;
66020;SDS011;52789;59.980;30.346;2022-07-19T13:27:14;5.13;;;1.00;;
66020;SDS011;52789;59.980;30.346;2022-07-19T13:32:09;3.22;;;1.00;;
66020;SDS011;52789;59.980;30.346;2022-07-19T13:34:37;1.85;;;1.13;;
66020;SDS011;52789;59.980;30.346;2022-07-19T13:37:03;2.33;;;1.27;;
66020;SDS011;52789;59.980;30.346;2022-07-19T13:39:29;2.05;;;0.93;;
66020;SDS011;52789;59.980;30.346;2022-07-19T13:41:55;1.17;;;0.70;;
66020;SDS011;52789;59.980;30.346;2022-07-19T13:44:21;4.25;;;1.08;;
66020;SDS011;52789;59.980;30.346;2022-07-19T13:46:47;3.92;;;1.10;;
66020;SDS011;52789;59.980;30.346;2022-07-19T13:49:12;5.82;;;1.30;;
66020;SDS011;52789;59.980;30.346;2022-07-19T13:51:38;4.50;;;2.90;;
66020;SDS011;52789;59.980;30.346;2022-07-19T13:54:04;3.03;;;1.17;;
66020;SDS011;52789;59.980;30.346;2022-07-19T13:56:30;4.85;;;1.17;;
66020;SDS011;52789;59.980;30.346;2022-07-19T13:58:56;3.38;;;2.17;;
66020;SDS011;52789;59.980;30.346;2022-07-19T14:01:21;9.52;;;5.38;;
66020;SDS011;52789;59.980;30.346;2022-07-19T14:03:47;7.15;;;3.25;;
66020;SDS011;52789;59.980;30.346;2022-07-19T14:06:13;5.40;;;0.90;;
66020;SDS011;52789;59.980;30.346;2022-07-19T14:08:39;3.05;;;1.17;;
66020;SDS011;52789;59.980;30.346;2022-07-19T14:11:05;3.55;;;1.23;;
66020;SDS011;52789;59.980;30.346;2022-07-19T14:13:30;2.22;;;1.40;;
66020;SDS011;52789;59.980;30.346;2022-07-19T14:15:56;2.78;;;1.40;;
66020;SDS011;52789;59.980;30.346;2022-07-19T14:18:22;2.92;;;1.02;;
66020;SDS011;52789;59.980;30.346;2022-07-19T14:20:48;6.18;;;1.25;;
66020;SDS011;52789;59.980;30.346;2022-07-19T14:23:14;3.80;;;1.48;;
66020;SDS011;52789;59.980;30.346;2022-07-19T14:25:40;5.38;;;1.48;;
66020;SDS011;52789;59.980;30.346;2022-07-19T14:28:07;4.85;;;1.67;;
66020;SDS011;52789;59.980;30.346;2022-07-19T14:30:34;10.48;;;1.67;;
66020;SDS011;52789;59.980;30.346;2022-07-19T14:33:01;6.55;;;1.48;;
66020;SDS011;52789;59.980;30.346;2022-07-19T14:35:27;6.97;;;1.63;;
66020;SDS011;52789;59.980;30.346;2022-07-19T14:37:52;7.60;;;1.40;;
66020;SDS011;52789;59.980;30.346;2022-07-19T14:40:18;3.38;;;1.38;;
66020;SDS011;52789;59.980;30.346;2022-07-19T14:42:44;3.25;;;1.25;;
66020;SDS011;52789;59.980;30.346;2022-07-19T14:45:10;4.65;;;1.17;;
66020;SDS011;52789;59.980;30.346;2022-07-19T14:47:37;5.43;;;1.75;;
66020;SDS011;52789;59.980;30.346;2022-07-19T14:50:04;3.22;;;1.27;;
66020;SDS011;52789;59.980;30.346;2022-07-19T14:52:31;5.07;;;1.10;;
66020;SDS011;52789;59.980;30.346;2022-07-19T14:54:56;3.13;;;1.50;;
66020;SDS011;52789;59.980;30.346;2022-07-19T14:57:22;7.13;;;2.28;;
66020;SDS011;52789;59.980;30.346;2022-07-19T14:59:48;6.43;;;2.97;;
66020;SDS011;52789;59.980;30.346;2022-07-19T15:02:14;6.00;;;1.88;;
66020;SDS011;52789;59.980;30.346;2022-07-19T15:04:39;3.55;;;1.33;;
66020;SDS011;52789;59.980;30.346;2022-07-19T15:07:05;4.03;;;1.42;;
66020;SDS011;52789;59.980;30.346;2022-07-19T15:09:31;2.58;;;1.42;;
66020;SDS011;52789;59.980;30.346;2022-07-19T15:11:56;6.68;;;1.42;;
66020;SDS011;52789;59.980;30.346;2022-07-19T15:14:28;9.90;;;2.55;;
66020;SDS011;52789;59.980;30.346;2022-07-19T15:16:57;6.40;;;2.22;;
66020;SDS011;52789;59.980;30.346;2022-07-19T15:19:24;7.53;;;3.45;;
66020;SDS011;52789;59.980;30.346;2022-07-19T15:21:50;5.07;;;2.78;;
66020;SDS011;52789;59.980;30.346;2022-07-19T15:24:17;6.38;;;3.08;;
66020;SDS011;52789;59.980;30.346;2022-07-19T15:26:42;11.50;;;2.13;;
66020;SDS011;52789;59.980;30.346;2022-07-19T15:29:10;5.95;;;2.00;;
66020;SDS011;52789;59.980;30.346;2022-07-19T15:31:35;5.72;;;1.52;;
66020;SDS011;52789;59.980;30.346;2022-07-19T15:34:01;7.47;;;2.17;;